Time;durP1;ratioP1;P1;durP2;ratioP2;P2;SDS_P1;SDS_P2;PMS_P1;PMS_P2;Temp;Humidity;BMP_temperature;BMP_pressure;BME280_temperature;BME280_humidity;BME280_pressure;Samples;Min_cycle;Max_cycle;Signal;HPM_P1;HPM_P2
2023/08/17 00:02:19;;;;;;;8.00;4.15;;;23.00;99.90;;;;;;5031277;28;20045;-80
2023/08/17 00:04:44;;;;;;;7.75;3.67;;;23.00;99.90;;;;;;5030836;28;20029;-80
2023/08/17 00:07:10;;;;;;;8.70;4.28;;;22.90;99.90;;;;;;5029827;28;20037;-80
2023/08/17 00:09:35;;;;;;;11.27;3.67;;;23.00;99.90;;;;;;5031175;28;20025;-79
2023/08/17 00:12:01;;;;;;;9.60;4.05;;;22.90;99.90;;;;;;5030002;28;20065;-80
2023/08/17 00:14:27;;;;;;;10.88;3.40;;;22.90;99.90;;;;;;5030669;28;20172;-80
2023/08/17 00:16:52;;;;;;;7.80;3.25;;;22.90;99.90;;;;;;5030995;28;20565;-80
2023/08/17 00:19:18;;;;;;;7.18;2.92;;;22.90;99.90;;;;;;5030885;28;20022;-80
2023/08/17 00:21:47;;;;;;;14.48;3.63;;;22.80;99.90;;;;;;5030942;28;20080;-81
2023/08/17 00:24:12;;;;;;;5.88;2.92;;;22.90;99.90;;;;;;5029663;28;20494;-81
2023/08/17 00:26:38;;;;;;;5.50;3.25;;;22.80;99.90;;;;;;5030622;28;20044;-80
2023/08/17 00:29:04;;;;;;;5.15;2.85;;;22.80;99.90;;;;;;5030839;28;20034;-80
2023/08/17 00:31:30;;;;;;;7.28;2.97;;;22.80;99.90;;;;;;5030651;28;20033;-80
2023/08/17 00:33:55;;;;;;;12.13;3.33;;;22.80;99.90;;;;;;5030318;28;20073;-79
2023/08/17 00:36:21;;;;;;;7.60;2.83;;;22.80;99.90;;;;;;5029400;28;20083;-79
2023/08/17 00:38:46;;;;;;;7.90;3.10;;;22.80;99.90;;;;;;5029046;28;20032;-79
2023/08/17 00:41:12;;;;;;;6.80;3.63;;;22.80;99.90;;;;;;5030559;28;20033;-79
2023/08/17 00:43:38;;;;;;;7.60;3.20;;;22.80;99.90;;;;;;5029255;28;20671;-79
2023/08/17 00:46:04;;;;;;;10.05;3.38;;;22.70;99.90;;;;;;5030338;28;20121;-80
2023/08/17 00:48:31;;;;;;;6.28;3.03;;;22.80;99.90;;;;;;5029118;28;20121;-80
2023/08/17 00:50:59;;;;;;;6.47;2.20;;;22.70;99.90;;;;;;5029151;28;20502;-79
2023/08/17 00:53:27;;;;;;;6.15;2.83;;;22.70;99.90;;;;;;5030165;28;20034;-80
2023/08/17 00:55:53;;;;;;;5.45;2.42;;;22.80;99.90;;;;;;5030238;28;20049;-80
2023/08/17 00:58:21;;;;;;;5.10;2.65;;;22.80;99.90;;;;;;5030189;28;20057;-80
2023/08/17 01:00:46;;;;;;;3.55;2.53;;;22.70;99.90;;;;;;5028727;28;20075;-80
2023/08/17 01:03:12;;;;;;;4.32;2.33;;;22.70;99.90;;;;;;5028804;28;20038;-80
2023/08/17 01:05:38;;;;;;;9.13;2.47;;;22.70;99.90;;;;;;5030056;28;20032;-80
2023/08/17 01:08:04;;;;;;;5.55;2.20;;;22.70;99.90;;;;;;5029961;28;20060;-80
2023/08/17 01:11:22;;;;;;;4.88;2.35;;;22.70;99.90;;;;;;5028268;28;20496;-80
2023/08/17 01:14:00;;;;;;;3.75;2.15;;;22.70;99.90;;;;;;4971517;28;20145;-80
2023/08/17 01:16:31;;;;;;;3.95;2.25;;;22.60;99.90;;;;;;4988004;28;20034;-80
2023/08/17 01:19:00;;;;;;;5.93;2.50;;;22.60;99.90;;;;;;5003171;28;20478;-80
2023/08/17 01:21:35;;;;;;;5.15;2.72;;;22.50;99.90;;;;;;5029018;28;20455;-80
2023/08/17 01:24:04;;;;;;;16.73;2.50;;;22.50;99.90;;;;;;5029620;28;20026;-80
2023/08/17 01:26:30;;;;;;;3.75;2.20;;;22.50;99.90;;;;;;5029816;28;20025;-81
2023/08/17 01:28:56;;;;;;;8.02;2.40;;;22.40;99.90;;;;;;5030040;28;20029;-80
2023/08/17 01:31:31;;;;;;;7.68;2.53;;;22.40;99.90;;;;;;5029658;28;20116;-80
2023/08/17 01:34:03;;;;;;;7.13;2.57;;;22.40;99.90;;;;;;5028229;28;20021;-78
2023/08/17 01:36:35;;;;;;;5.00;2.35;;;22.40;99.90;;;;;;5029706;28;20798;-78
2023/08/17 01:39:03;;;;;;;6.68;3.13;;;22.40;99.90;;;;;;5029744;28;20021;-80
2023/08/17 01:41:31;;;;;;;5.25;2.53;;;22.30;99.90;;;;;;5029548;28;20030;-79
2023/08/17 01:43:59;;;;;;;5.93;2.92;;;22.30;99.90;;;;;;5028083;28;20029;-79
2023/08/17 01:46:30;;;;;;;7.47;3.17;;;22.30;99.90;;;;;;5029403;28;20030;-80
2023/08/17 01:48:56;;;;;;;7.38;3.05;;;22.30;99.90;;;;;;5029475;28;20029;-80
2023/08/17 01:51:22;;;;;;;5.53;2.88;;;22.30;99.90;;;;;;5028807;28;20035;-80
2023/08/17 01:53:48;;;;;;;6.90;3.42;;;22.30;99.90;;;;;;5029288;28;20410;-79
2023/08/17 01:56:14;;;;;;;7.25;2.92;;;22.30;99.90;;;;;;5029549;28;20572;-80
2023/08/17 01:58:40;;;;;;;5.65;2.67;;;22.30;99.90;;;;;;5029200;28;20026;-78
2023/08/17 02:01:05;;;;;;;7.03;2.83;;;22.40;99.90;;;;;;5029078;28;20033;-78
2023/08/17 02:03:31;;;;;;;4.80;2.75;;;22.50;99.80;;;;;;5029298;28;20037;-78
2023/08/17 02:05:57;;;;;;;6.35;3.28;;;22.60;99.10;;;;;;5029153;28;20371;-81
2023/08/17 02:08:23;;;;;;;6.35;2.38;;;22.60;98.50;;;;;;5029499;28;20044;-80
2023/08/17 02:10:49;;;;;;;3.80;2.22;;;22.70;98.10;;;;;;5029385;28;20056;-79
2023/08/17 02:13:18;;;;;;;5.18;2.60;;;22.70;97.90;;;;;;5029100;28;20069;-81
2023/08/17 02:15:45;;;;;;;5.32;2.58;;;22.80;97.40;;;;;;5031633;28;20029;-80
2023/08/17 02:18:10;;;;;;;5.75;2.90;;;22.80;97.50;;;;;;5033301;28;20047;-81
2023/08/17 02:20:36;;;;;;;3.30;2.50;;;22.80;98.20;;;;;;5033241;28;20033;-80
2023/08/17 02:23:01;;;;;;;6.25;3.13;;;22.80;98.90;;;;;;5031797;28;20037;-80
2023/08/17 02:25:33;;;;;;;7.95;2.35;;;22.70;99.80;;;;;;5032996;28;20036;-80
2023/08/17 02:28:00;;;;;;;8.07;2.88;;;22.60;99.90;;;;;;5033041;28;20029;-80
2023/08/17 02:30:25;;;;;;;8.18;3.22;;;22.60;99.90;;;;;;5032876;28;20418;-79
2023/08/17 02:32:51;;;;;;;6.43;2.95;;;22.50;99.90;;;;;;5031393;28;20021;-80
2023/08/17 02:35:17;;;;;;;5.20;2.83;;;22.50;99.90;;;;;;5031692;28;20052;-80
2023/08/17 02:37:42;;;;;;;5.40;3.17;;;22.40;99.90;;;;;;5031498;28;20040;-80
2023/08/17 02:40:09;;;;;;;5.88;2.95;;;22.30;99.90;;;;;;5032908;28;20079;-80
2023/08/17 02:42:34;;;;;;;6.18;3.05;;;22.40;99.90;;;;;;5032658;28;20646;-81
2023/08/17 02:45:00;;;;;;;4.47;2.88;;;22.30;99.90;;;;;;5032344;28;20026;-80
2023/08/17 02:47:25;;;;;;;8.55;4.25;;;22.20;99.90;;;;;;5032571;28;20041;-79
2023/08/17 02:49:51;;;;;;;5.32;3.50;;;22.20;99.90;;;;;;5032692;28;20036;-80
2023/08/17 02:52:17;;;;;;;6.90;3.33;;;22.10;99.90;;;;;;5032740;28;20029;-80
2023/08/17 02:54:42;;;;;;;9.00;3.63;;;22.00;99.90;;;;;;5032187;28;20784;-80
2023/08/17 02:57:08;;;;;;;5.68;3.15;;;22.10;99.90;;;;;;5031555;28;20029;-80
2023/08/17 02:59:34;;;;;;;4.65;3.17;;;22.10;99.90;;;;;;5032978;28;20100;-81
2023/08/17 03:01:59;;;;;;;6.25;2.97;;;22.00;99.90;;;;;;5031031;28;20519;-79
2023/08/17 03:04:25;;;;;;;6.75;3.28;;;22.00;99.90;;;;;;5032209;28;20021;-79
2023/08/17 03:06:50;;;;;;;4.53;3.17;;;22.00;99.90;;;;;;5032229;28;20030;-79
2023/08/17 03:09:16;;;;;;;6.20;3.35;;;22.00;99.90;;;;;;5032221;28;20026;-79
2023/08/17 03:11:42;;;;;;;4.85;3.38;;;22.00;99.90;;;;;;5031162;28;20486;-80
2023/08/17 03:14:07;;;;;;;3.97;3.03;;;22.00;99.90;;;;;;5030646;28;20072;-80
2023/08/17 03:16:33;;;;;;;8.50;3.17;;;22.00;99.90;;;;;;5032181;28;20513;-79
2023/08/17 03:18:59;;;;;;;6.43;3.38;;;22.10;99.90;;;;;;5032082;28;20052;-78
2023/08/17 03:21:25;;;;;;;5.50;2.92;;;22.00;99.90;;;;;;5031812;28;20045;-79
2023/08/17 03:23:50;;;;;;;4.78;3.30;;;22.10;99.90;;;;;;5031618;28;20025;-79
2023/08/17 03:26:16;;;;;;;4.63;2.97;;;22.00;99.90;;;;;;5029424;28;20033;-81
2023/08/17 03:28:42;;;;;;;5.82;3.17;;;22.00;99.90;;;;;;5030752;28;20449;-80
2023/08/17 03:31:10;;;;;;;5.43;2.75;;;22.00;99.90;;;;;;5030242;28;20112;-80
2023/08/17 03:33:36;;;;;;;5.45;2.65;;;22.00;99.90;;;;;;5030353;28;20425;-80
2023/08/17 03:36:03;;;;;;;4.88;3.05;;;22.00;99.90;;;;;;5031621;28;20033;-80
2023/08/17 03:38:29;;;;;;;5.25;2.97;;;22.00;99.90;;;;;;5031817;28;20108;-77
2023/08/17 03:40:55;;;;;;;5.78;3.45;;;22.00;99.90;;;;;;5031923;28;20112;-76
2023/08/17 03:43:20;;;;;;;6.88;2.85;;;21.90;99.90;;;;;;5031629;28;20025;-77
2023/08/17 03:45:46;;;;;;;7.65;3.53;;;21.90;99.90;;;;;;5031682;28;20104;-77
2023/08/17 03:48:12;;;;;;;5.72;3.25;;;21.90;99.90;;;;;;5031582;28;20037;-78
2023/08/17 03:50:38;;;;;;;8.00;3.17;;;21.90;99.90;;;;;;5031401;28;20028;-78
2023/08/17 03:53:04;;;;;;;12.07;3.10;;;21.80;99.90;;;;;;5029931;28;20532;-79
2023/08/17 03:55:29;;;;;;;6.25;3.55;;;21.80;99.90;;;;;;5031397;28;20032;-78
2023/08/17 03:57:55;;;;;;;5.95;3.30;;;21.80;99.90;;;;;;5031180;28;20057;-79
2023/08/17 04:00:21;;;;;;;4.30;2.78;;;21.80;99.90;;;;;;5029932;28;20116;-79
2023/08/17 04:02:46;;;;;;;11.73;3.70;;;21.70;99.90;;;;;;5031185;28;20041;-79
2023/08/17 04:05:13;;;;;;;11.43;3.17;;;21.70;99.90;;;;;;5031105;28;20036;-79
2023/08/17 04:07:38;;;;;;;5.85;3.70;;;21.80;99.90;;;;;;5031083;28;20025;-80
2023/08/17 04:10:07;;;;;;;6.47;3.28;;;21.80;99.90;;;;;;5030230;28;20029;-80
2023/08/17 04:12:33;;;;;;;7.40;3.33;;;21.80;99.90;;;;;;5031097;28;20752;-81
2023/08/17 04:14:59;;;;;;;4.97;3.17;;;21.80;99.90;;;;;;5030916;28;20504;-80
2023/08/17 04:17:24;;;;;;;5.10;3.08;;;21.90;99.90;;;;;;5030870;28;20473;-79
2023/08/17 04:19:50;;;;;;;6.35;3.08;;;22.00;99.90;;;;;;5030849;28;20060;-80
2023/08/17 04:22:16;;;;;;;7.63;3.42;;;22.00;99.90;;;;;;5029248;28;20490;-80
2023/08/17 04:24:42;;;;;;;7.90;3.33;;;22.20;99.90;;;;;;5030514;28;20052;-81
2023/08/17 04:27:08;;;;;;;7.05;3.22;;;22.30;99.90;;;;;;5030691;28;20490;-80
2023/08/17 04:29:33;;;;;;;12.85;3.28;;;22.30;99.90;;;;;;5030407;28;20416;-80
2023/08/17 04:31:59;;;;;;;4.30;2.75;;;22.50;99.90;;;;;;5029256;28;20422;-80
2023/08/17 04:34:25;;;;;;;8.93;2.90;;;22.60;99.90;;;;;;5030584;28;20026;-78
2023/08/17 04:36:51;;;;;;;10.50;2.95;;;22.70;99.70;;;;;;5029064;28;20025;-78
2023/08/17 04:39:17;;;;;;;8.43;2.80;;;22.80;99.60;;;;;;5029273;28;20033;-78
2023/08/17 04:41:43;;;;;;;5.65;3.08;;;22.90;99.20;;;;;;5030354;28;20057;-78
2023/08/17 04:44:08;;;;;;;12.43;3.75;;;23.00;98.80;;;;;;5028624;28;20083;-78
2023/08/17 04:46:35;;;;;;;6.45;2.97;;;23.00;98.30;;;;;;5030205;28;20791;-77
2023/08/17 04:49:00;;;;;;;6.18;2.95;;;23.00;98.10;;;;;;5028890;28;20080;-78
2023/08/17 04:51:26;;;;;;;12.75;3.40;;;23.00;97.90;;;;;;5030118;28;20029;-77
2023/08/17 04:53:52;;;;;;;8.52;2.95;;;23.10;97.70;;;;;;5029971;28;20568;-79
2023/08/17 04:56:17;;;;;;;5.97;3.30;;;23.10;97.40;;;;;;5030187;28;20017;-79
2023/08/17 04:58:43;;;;;;;7.30;2.95;;;23.10;97.50;;;;;;5028704;28;20049;-80
2023/08/17 05:01:10;;;;;;;7.10;3.00;;;23.00;97.30;;;;;;5029988;28;20072;-79
2023/08/17 05:03:36;;;;;;;8.40;2.45;;;23.10;97.30;;;;;;5029992;28;20047;-80
2023/08/17 05:06:03;;;;;;;9.23;2.78;;;23.20;97.20;;;;;;5028555;28;20121;-80
2023/08/17 05:08:29;;;;;;;7.72;2.63;;;23.20;96.90;;;;;;5028582;28;20040;-79
2023/08/17 05:10:54;;;;;;;8.73;3.17;;;23.20;96.80;;;;;;5029705;28;20405;-78
2023/08/17 05:13:20;;;;;;;9.18;3.13;;;23.20;97.00;;;;;;5029602;28;20510;-79
2023/08/17 05:15:46;;;;;;;8.00;3.67;;;23.20;97.00;;;;;;5028232;28;20095;-78
2023/08/17 05:18:11;;;;;;;8.65;3.28;;;23.20;97.10;;;;;;5028660;28;20040;-79
2023/08/17 05:20:37;;;;;;;9.52;3.40;;;23.30;97.20;;;;;;5029715;28;20029;-79
2023/08/17 05:23:03;;;;;;;6.80;3.67;;;23.30;97.40;;;;;;5029604;28;20029;-79
2023/08/17 05:25:29;;;;;;;8.13;3.15;;;23.30;97.60;;;;;;5029641;28;20040;-79
2023/08/17 05:27:55;;;;;;;6.50;3.10;;;23.20;97.60;;;;;;5029604;28;20029;-81
2023/08/17 05:30:21;;;;;;;9.20;2.92;;;23.20;97.80;;;;;;5028465;28;20513;-80
2023/08/17 05:32:47;;;;;;;10.27;3.03;;;23.20;98.00;;;;;;5029822;28;20053;-79
2023/08/17 05:35:13;;;;;;;7.63;2.88;;;23.20;98.50;;;;;;5029545;28;20048;-79
2023/08/17 05:37:38;;;;;;;6.18;3.22;;;23.20;98.90;;;;;;5029313;28;20037;-80
2023/08/17 05:40:05;;;;;;;5.82;3.13;;;23.20;98.90;;;;;;5028254;28;20025;-79
2023/08/17 05:42:30;;;;;;;4.85;2.65;;;23.30;99.00;;;;;;5029328;28;20080;-79
2023/08/17 05:44:56;;;;;;;7.25;3.40;;;23.30;99.10;;;;;;5029289;28;20057;-80
2023/08/17 05:47:22;;;;;;;7.05;3.00;;;23.30;99.10;;;;;;5039461;28;20489;-80
2023/08/17 05:49:47;;;;;;;5.93;3.20;;;23.40;99.20;;;;;;5046075;28;20037;-80
2023/08/17 05:52:13;;;;;;;4.88;2.95;;;23.50;99.30;;;;;;5030784;28;20037;-80
2023/08/17 05:54:39;;;;;;;7.88;3.97;;;23.50;99.10;;;;;;5029140;28;20033;-80
2023/08/17 05:57:05;;;;;;;9.38;3.42;;;23.60;99.10;;;;;;5029396;28;20486;-80
2023/08/17 05:59:30;;;;;;;5.78;3.10;;;23.60;98.90;;;;;;5045668;28;20025;-80
2023/08/17 06:01:56;;;;;;;10.95;2.80;;;23.70;99.00;;;;;;5039853;28;20525;-80
2023/08/17 06:04:22;;;;;;;6.03;3.03;;;23.80;98.80;;;;;;5047529;28;20654;-79
2023/08/17 06:06:47;;;;;;;4.50;2.92;;;23.90;98.80;;;;;;5048072;28;20041;-80
2023/08/17 06:09:14;;;;;;;8.30;3.00;;;24.10;98.60;;;;;;5034853;28;20117;-80
2023/08/17 06:11:40;;;;;;;8.18;2.97;;;24.30;98.00;;;;;;5034763;28;20040;-80
2023/08/17 06:14:05;;;;;;;9.32;3.72;;;24.60;97.80;;;;;;5048211;28;20057;-80
2023/08/17 06:16:31;;;;;;;10.48;4.72;;;24.70;98.00;;;;;;5046147;28;20098;-80
2023/08/17 06:18:57;;;;;;;7.53;4.40;;;24.90;97.80;;;;;;5040055;28;20033;-81
2023/08/17 06:21:22;;;;;;;10.00;4.90;;;25.20;97.40;;;;;;5037530;28;20021;-81
2023/08/17 06:23:48;;;;;;;8.32;3.83;;;25.90;96.20;;;;;;5040223;28;20145;-80
2023/08/17 06:26:14;;;;;;;13.70;3.95;;;26.50;94.50;;;;;;5038157;28;20017;-80
2023/08/17 06:28:40;;;;;;;6.13;3.67;;;26.90;92.90;;;;;;5037576;28;20043;-81
2023/08/17 06:31:05;;;;;;;7.78;3.70;;;27.20;91.70;;;;;;5037479;28;20529;-80
2023/08/17 06:33:31;;;;;;;12.32;4.50;;;27.30;90.60;;;;;;5037116;28;20044;-81
2023/08/17 06:35:57;;;;;;;11.70;4.18;;;27.50;90.20;;;;;;5034968;28;20033;-81
2023/08/17 06:38:22;;;;;;;8.32;4.35;;;27.50;88.30;;;;;;5037017;28;20470;-81
2023/08/17 06:40:48;;;;;;;8.00;3.78;;;27.20;89.60;;;;;;5037724;28;20057;-80
2023/08/17 06:43:14;;;;;;;10.98;4.50;;;27.20;89.30;;;;;;5029662;28;20410;-80
2023/08/17 06:45:39;;;;;;;10.98;4.75;;;27.20;89.90;;;;;;5028963;28;20121;-81
2023/08/17 06:48:05;;;;;;;12.45;4.18;;;27.30;88.60;;;;;;5029069;28;20128;-80
2023/08/17 06:50:31;;;;;;;8.98;4.13;;;27.20;89.80;;;;;;5028787;28;20793;-81
2023/08/17 06:52:56;;;;;;;10.25;3.50;;;27.10;90.30;;;;;;5027600;28;20128;-80
2023/08/17 06:55:22;;;;;;;7.15;5.05;;;27.00;90.20;;;;;;5027580;28;20448;-80
2023/08/17 06:57:51;;;;;;;9.55;4.47;;;26.80;90.30;;;;;;5028897;28;20041;-81
2023/08/17 07:00:20;;;;;;;9.77;4.32;;;26.70;90.60;;;;;;5029880;28;20029;-80
2023/08/17 07:02:50;;;;;;;8.95;4.65;;;26.70;91.10;;;;;;5030990;28;20044;-80
2023/08/17 07:05:16;;;;;;;7.43;4.10;;;26.70;90.90;;;;;;5030127;28;20022;-79
2023/08/17 07:07:42;;;;;;;13.85;4.60;;;26.80;90.80;;;;;;5030910;28;20148;-80
2023/08/17 07:10:10;;;;;;;6.00;3.95;;;26.80;90.60;;;;;;5029538;28;20414;-80
2023/08/17 07:12:36;;;;;;;10.25;4.05;;;26.90;90.90;;;;;;5031528;28;20056;-80
2023/08/17 07:15:04;;;;;;;10.88;5.07;;;26.90;90.70;;;;;;5032182;28;20064;-80
2023/08/17 07:17:30;;;;;;;6.93;3.90;;;26.90;90.80;;;;;;5032097;28;20029;-79
2023/08/17 07:19:55;;;;;;;7.40;4.10;;;27.50;91.00;;;;;;5031956;28;20018;-80
2023/08/17 07:22:21;;;;;;;9.23;3.83;;;28.30;88.90;;;;;;5030736;28;20413;-80
2023/08/17 07:24:46;;;;;;;5.53;3.78;;;28.90;83.90;;;;;;5031808;28;20036;-80
2023/08/17 07:27:12;;;;;;;5.88;3.22;;;29.40;81.90;;;;;;5030492;28;20425;-80
2023/08/17 07:29:38;;;;;;;6.47;2.95;;;30.10;75.50;;;;;;5030664;28;20120;-80
2023/08/17 07:32:04;;;;;;;5.75;2.60;;;30.40;71.80;;;;;;5031676;28;20513;-80
2023/08/17 07:34:32;;;;;;;10.38;4.45;;;30.70;70.20;;;;;;5030999;28;20037;-80
2023/08/17 07:36:58;;;;;;;17.00;3.80;;;31.30;70.10;;;;;;5032020;28;20033;-80
2023/08/17 07:39:25;;;;;;;5.88;2.70;;;31.20;67.00;;;;;;5031419;28;20098;-80
2023/08/17 07:41:50;;;;;;;8.43;2.75;;;31.00;66.40;;;;;;5031563;28;20040;-79
2023/08/17 07:44:16;;;;;;;6.07;2.75;;;30.60;66.70;;;;;;5029935;28;20029;-80
2023/08/17 07:46:41;;;;;;;6.28;2.28;;;30.20;66.90;;;;;;5029755;28;20052;-80
2023/08/17 07:49:07;;;;;;;7.57;2.50;;;29.90;66.20;;;;;;5029781;28;20070;-80
2023/08/17 07:51:33;;;;;;;4.43;2.00;;;29.70;66.70;;;;;;5030449;28;20026;-80
2023/08/17 07:54:00;;;;;;;6.95;2.45;;;29.20;66.60;;;;;;5030716;28;20025;-79
2023/08/17 07:56:26;;;;;;;7.20;2.75;;;28.80;67.90;;;;;;5029743;28;20030;-80
2023/08/17 07:58:53;;;;;;;4.45;2.00;;;28.50;68.20;;;;;;5031367;28;20033;-79
2023/08/17 08:01:19;;;;;;;4.93;2.00;;;28.40;68.90;;;;;;5031011;28;20033;-80
2023/08/17 08:03:45;;;;;;;3.45;2.05;;;28.10;68.60;;;;;;5031130;28;20038;-80
2023/08/17 08:06:11;;;;;;;4.93;1.90;;;28.00;69.90;;;;;;5031189;28;20032;-80
2023/08/17 08:08:36;;;;;;;5.78;2.88;;;28.00;67.00;;;;;;5031073;28;20450;-80
2023/08/17 08:11:04;;;;;;;7.18;2.80;;;27.70;65.80;;;;;;5029851;28;20025;-80
2023/08/17 08:13:30;;;;;;;5.55;2.92;;;27.60;67.70;;;;;;5030408;28;20048;-80
2023/08/17 08:15:56;;;;;;;4.15;2.50;;;27.50;70.10;;;;;;5030985;28;20036;-80
2023/08/17 08:18:21;;;;;;;5.68;2.88;;;27.30;70.70;;;;;;5029486;28;20491;-80
2023/08/17 08:20:48;;;;;;;5.13;2.58;;;27.30;70.50;;;;;;5031754;28;20601;-80
2023/08/17 08:23:14;;;;;;;5.80;2.72;;;27.20;71.70;;;;;;5039315;28;20079;-80
2023/08/17 08:25:39;;;;;;;5.85;2.53;;;27.00;72.70;;;;;;5030883;28;20482;-81
2023/08/17 08:28:05;;;;;;;10.40;4.50;;;27.20;73.80;;;;;;5029469;28;20033;-80
2023/08/17 08:30:31;;;;;;;10.13;5.72;;;27.20;74.40;;;;;;5029463;28;20033;-80
2023/08/17 08:32:57;;;;;;;5.00;2.63;;;27.30;71.90;;;;;;5030478;28;20467;-80
2023/08/17 08:35:24;;;;;;;6.75;2.53;;;27.30;70.50;;;;;;5030463;28;20104;-80
2023/08/17 08:37:50;;;;;;;3.67;1.40;;;27.30;69.50;;;;;;5035391;28;20021;-81
2023/08/17 08:40:17;;;;;;;3.22;1.85;;;27.50;68.50;;;;;;5038709;28;20060;-80
2023/08/17 08:42:43;;;;;;;2.97;1.40;;;27.70;70.00;;;;;;5039057;28;20536;-80
2023/08/17 08:45:10;;;;;;;4.57;2.10;;;27.90;69.20;;;;;;5038231;28;20439;-80
2023/08/17 08:47:37;;;;;;;3.92;1.20;;;28.00;67.60;;;;;;5038457;28;20036;-80
2023/08/17 08:50:04;;;;;;;2.42;1.50;;;28.20;65.90;;;;;;5039032;28;20059;-80
2023/08/17 08:52:49;;;;;;;3.47;1.40;;;28.70;66.50;;;;;;5038928;28;20057;-81
2023/08/17 08:55:19;;;;;;;3.33;1.02;;;29.80;63.40;;;;;;5037771;28;20501;-79
2023/08/17 08:57:46;;;;;;;4.70;1.00;;;31.20;55.70;;;;;;5030068;28;20039;-80
2023/08/17 09:00:13;;;;;;;5.53;0.90;;;31.70;54.00;;;;;;5029754;28;20021;-79
2023/08/17 09:02:38;;;;;;;2.28;1.13;;;31.90;53.30;;;;;;5028202;28;20064;-80
2023/08/17 09:05:08;;;;;;;1.70;0.90;;;31.90;51.80;;;;;;5029911;28;20036;-80
2023/08/17 09:07:35;;;;;;;3.80;1.20;;;31.50;51.10;;;;;;5028198;28;20128;-80
2023/08/17 09:10:03;;;;;;;3.00;0.90;;;31.50;52.30;;;;;;5028453;28;20033;-80
2023/08/17 09:12:29;;;;;;;4.53;1.00;;;31.60;52.10;;;;;;5027917;28;20065;-79
2023/08/17 09:14:55;;;;;;;7.65;1.88;;;31.80;50.50;;;;;;5029702;28;20021;-79
2023/08/17 09:17:24;;;;;;;4.97;1.27;;;32.10;50.10;;;;;;5029827;28;20542;-79
2023/08/17 09:19:50;;;;;;;2.47;0.80;;;32.20;49.10;;;;;;5029755;28;20079;-81
2023/08/17 09:22:37;;;;;;;3.28;1.33;;;32.40;49.30;;;;;;5029909;28;20041;-81
2023/08/17 09:25:03;;;;;;;4.95;1.10;;;32.90;48.80;;;;;;5027564;28;20029;-80
2023/08/17 09:27:28;;;;;;;5.40;1.13;;;32.80;47.80;;;;;;5029378;28;20120;-80
2023/08/17 09:30:09;;;;;;;5.78;1.33;;;32.30;46.90;;;;;;5028045;28;20121;-79
2023/08/17 09:32:35;;;;;;;1.23;0.73;;;31.80;47.80;;;;;;5028815;28;20037;-80
2023/08/17 09:35:05;;;;;;;1.58;0.88;;;31.30;48.90;;;;;;5029640;28;20433;-80
2023/08/17 09:37:31;;;;;;;2.50;1.00;;;30.70;49.50;;;;;;5028168;28;20060;-80
2023/08/17 09:39:58;;;;;;;3.92;0.80;;;30.40;50.60;;;;;;5028212;28;20060;-81
2023/08/17 09:42:25;;;;;;;3.35;1.05;;;30.00;52.00;;;;;;5029620;28;20095;-81
2023/08/17 09:44:52;;;;;;;3.08;1.00;;;29.70;53.40;;;;;;5028251;28;20105;-80
2023/08/17 09:47:18;;;;;;;4.60;1.35;;;29.60;53.00;;;;;;5029401;28;20053;-80
2023/08/17 09:49:52;;;;;;;2.42;0.77;;;29.40;54.40;;;;;;5028061;28;20029;-80
2023/08/17 09:52:19;;;;;;;3.30;1.08;;;29.30;53.40;;;;;;5029250;28;20029;-80
2023/08/17 09:54:47;;;;;;;10.10;1.50;;;29.00;54.70;;;;;;5028076;28;20144;-80
2023/08/17 09:57:13;;;;;;;5.10;2.15;;;29.00;55.20;;;;;;5029298;28;20025;-80
2023/08/17 09:59:39;;;;;;;1.60;1.00;;;29.00;55.00;;;;;;5029589;28;20040;-80
2023/08/17 10:02:21;;;;;;;2.80;1.17;;;29.00;55.00;;;;;;5027933;28;20034;-79
2023/08/17 10:04:52;;;;;;;5.75;2.17;;;29.00;55.90;;;;;;5029085;28;20022;-80
2023/08/17 10:07:20;;;;;;;5.00;1.30;;;28.90;56.80;;;;;;5028141;28;20763;-80
2023/08/17 10:09:54;;;;;;;3.80;1.45;;;28.90;57.40;;;;;;5027968;28;20024;-80
2023/08/17 10:12:23;;;;;;;7.88;1.73;;;28.60;56.10;;;;;;5029174;28;20064;-80
2023/08/17 10:14:59;;;;;;;2.53;1.13;;;28.50;57.30;;;;;;5037350;28;20037;-81
2023/08/17 10:17:30;;;;;;;;;;;28.50;57.90;;;;;;5030022;28;20041;-81
2023/08/17 10:20:00;;;;;;;7.88;1.02;;;28.60;57.70;;;;;;5027934;28;20296;-81
2023/08/17 10:22:43;;;;;;;5.70;1.00;;;28.80;58.20;;;;;;5027966;28;20034;-81
2023/08/17 10:25:11;;;;;;;2.47;0.98;;;28.80;56.40;;;;;;5029244;28;20026;-80
2023/08/17 10:27:37;;;;;;;3.58;0.80;;;28.80;56.80;;;;;;5029670;28;20021;-81
2023/08/17 10:30:03;;;;;;;4.80;0.90;;;28.70;56.20;;;;;;5031253;28;20083;-81
2023/08/17 10:32:30;;;;;;;1.52;0.88;;;28.60;57.70;;;;;;5027866;28;20070;-80
2023/08/17 10:34:57;;;;;;;3.30;0.98;;;28.50;57.00;;;;;;5032760;28;20105;-80
2023/08/17 10:37:24;;;;;;;2.10;0.90;;;28.60;58.10;;;;;;5032849;28;20048;-80
2023/08/17 10:39:50;;;;;;;1.73;0.77;;;28.70;57.80;;;;;;5031469;28;20025;-80
2023/08/17 10:42:33;;;;;;;2.38;0.80;;;28.90;58.50;;;;;;5032644;28;20764;-80
2023/08/17 10:45:01;;;;;;;5.57;0.90;;;29.40;58.70;;;;;;5048118;28;20481;-80
2023/08/17 10:47:32;;;;;;;6.80;1.50;;;29.70;58.30;;;;;;5049914;28;20127;-81
2023/08/17 10:50:05;;;;;;;3.28;0.98;;;30.00;57.00;;;;;;5033562;28;20030;-80
2023/08/17 10:52:32;;;;;;;3.75;1.58;;;30.20;57.00;;;;;;5044612;28;20067;-81
2023/08/17 10:55:05;;;;;;;4.75;1.70;;;30.50;58.00;;;;;;5031581;28;20393;-81
2023/08/17 10:57:41;;;;;;;12.15;1.83;;;30.70;58.70;;;;;;5039188;28;20495;-81
2023/08/17 11:00:17;;;;;;;7.78;2.05;;;31.10;58.00;;;;;;5036632;28;20036;-80
2023/08/17 11:02:52;;;;;;;6.63;2.08;;;31.10;55.70;;;;;;5031043;28;20102;-80
2023/08/17 11:05:34;;;;;;;6.55;2.05;;;31.30;54.50;;;;;;5030881;28;20061;-80
2023/08/17 11:08:00;;;;;;;6.55;1.70;;;31.10;54.10;;;;;;5032687;28;20027;-81
2023/08/17 11:10:25;;;;;;;4.20;2.17;;;31.00;55.10;;;;;;5040554;28;20036;-81
2023/08/17 11:12:56;;;;;;;5.35;1.58;;;30.80;54.80;;;;;;5050678;28;20137;-80
2023/08/17 11:15:24;;;;;;;3.22;1.25;;;30.50;54.40;;;;;;5050983;28;20112;-81
2023/08/17 11:17:49;;;;;;;4.10;1.80;;;30.30;51.90;;;;;;5044190;28;20383;-80
2023/08/17 11:20:15;;;;;;;7.97;1.75;;;30.20;53.00;;;;;;5032141;28;20076;-81
2023/08/17 11:22:41;;;;;;;2.58;1.25;;;30.30;51.20;;;;;;5033019;28;20057;-80
2023/08/17 11:25:07;;;;;;;1.85;1.10;;;30.30;52.80;;;;;;5051938;28;20075;-81
2023/08/17 11:27:33;;;;;;;5.70;1.30;;;30.30;52.20;;;;;;5051816;28;20037;-80
2023/08/17 11:29:59;;;;;;;2.78;1.13;;;30.30;51.20;;;;;;5032986;28;20441;-81
2023/08/17 11:32:25;;;;;;;3.10;1.60;;;30.30;48.40;;;;;;5037841;28;20029;-80
2023/08/17 11:34:51;;;;;;;3.38;1.20;;;30.30;49.90;;;;;;5037536;28;20021;-80
2023/08/17 11:37:17;;;;;;;7.15;1.65;;;30.40;49.00;;;;;;5039582;28;20047;-80
2023/08/17 11:39:42;;;;;;;3.70;1.17;;;30.50;49.60;;;;;;5039132;28;20017;-80
2023/08/17 11:42:08;;;;;;;3.15;1.33;;;30.50;48.20;;;;;;5031666;28;20037;-81
2023/08/17 11:44:34;;;;;;;5.28;0.93;;;30.40;48.20;;;;;;5030273;28;20036;-81
2023/08/17 11:47:00;;;;;;;3.88;1.25;;;30.50;48.20;;;;;;5029147;28;20120;-80
2023/08/17 11:49:25;;;;;;;5.03;1.45;;;30.60;48.90;;;;;;5035384;28;20025;-80
2023/08/17 11:51:54;;;;;;;2.83;1.75;;;30.60;48.20;;;;;;5030248;28;20033;-79
2023/08/17 11:54:21;;;;;;;5.38;1.15;;;30.60;47.70;;;;;;5031300;28;20033;-79
2023/08/17 11:56:47;;;;;;;4.82;1.25;;;30.50;47.40;;;;;;5031257;28;20083;-80
2023/08/17 11:59:19;;;;;;;3.17;1.10;;;30.40;48.40;;;;;;5029898;28;20402;-79
2023/08/17 12:01:45;;;;;;;1.58;1.10;;;30.20;46.60;;;;;;5031004;28;20034;-80
2023/08/17 12:04:11;;;;;;;2.33;0.93;;;30.00;46.60;;;;;;5031053;28;20094;-80
2023/08/17 12:06:44;;;;;;;5.93;1.40;;;29.90;47.40;;;;;;5029832;28;20036;-80
2023/08/17 12:09:09;;;;;;;3.53;1.42;;;29.90;46.50;;;;;;5029784;28;20553;-80
2023/08/17 12:11:35;;;;;;;3.20;1.35;;;29.80;47.00;;;;;;5031116;28;20041;-80
2023/08/17 12:14:11;;;;;;;4.57;1.10;;;29.90;48.70;;;;;;5029353;28;20038;-80
2023/08/17 12:16:47;;;;;;;4.40;2.10;;;29.90;47.50;;;;;;5030886;28;20036;-80
2023/08/17 12:19:13;;;;;;;3.72;1.75;;;29.90;48.30;;;;;;5030814;28;20101;-79
2023/08/17 12:21:41;;;;;;;4.50;1.50;;;29.80;49.00;;;;;;5030527;28;20482;-80
2023/08/17 12:24:08;;;;;;;4.63;2.08;;;29.80;49.80;;;;;;5029369;28;20380;-80
2023/08/17 12:26:35;;;;;;;3.15;1.80;;;29.70;50.50;;;;;;5029606;28;20032;-80
2023/08/17 12:29:04;;;;;;;2.78;1.50;;;29.70;49.20;;;;;;5030720;28;20458;-81
2023/08/17 12:31:30;;;;;;;3.55;1.70;;;29.70;50.20;;;;;;5029379;28;20029;-79
2023/08/17 12:33:55;;;;;;;4.05;1.40;;;29.70;50.00;;;;;;5030606;28;20048;-80
2023/08/17 12:36:21;;;;;;;2.25;1.30;;;29.70;49.00;;;;;;5029110;28;20021;-80
2023/08/17 12:38:47;;;;;;;6.38;1.50;;;29.70;50.20;;;;;;5030792;28;20553;-80
2023/08/17 12:41:13;;;;;;;3.90;1.63;;;29.50;51.10;;;;;;5030189;28;20529;-79
2023/08/17 12:43:39;;;;;;;7.03;1.70;;;29.30;51.50;;;;;;5030329;28;20037;-80
2023/08/17 12:46:05;;;;;;;11.88;2.22;;;29.20;50.60;;;;;;5030211;28;20485;-81